Terminal Aerodrome Forecast
Issued by NWS

Home | Current Version | Previous Version | Text Only | Print | Product List | Glossary On
Versions: 1 2 3 4 5 6 7 8 9 10 11 12 13 14 15 16 17 18 19 20 21 22 23
000
FTUS45 KPSR 110500
TAFSDL
TAF
KSDL 110521Z 1106/1206 VRB04KT P6SM FEW120 BKN200
     FM112000 24006KT P6SM FEW090 SCT200
     FM120300 VRB05KT P6SM SCT200=

USA.gov is the U.S. government's official web portal to all federal, state and local government web resources and services.